sensor_id;sensor_type;location;lat;lon;timestamp;P1;durP1;ratioP1;P2;durP2;ratioP2
43580;SDS011;29175;51.030;4.606;2023-12-14T00:01:19;100.70;;;26.48;;
43580;SDS011;29175;51.030;4.606;2023-12-14T00:03:45;100.82;;;26.20;;
43580;SDS011;29175;51.030;4.606;2023-12-14T00:06:11;97.45;;;26.42;;
43580;SDS011;29175;51.030;4.606;2023-12-14T00:08:37;96.55;;;26.80;;
43580;SDS011;29175;51.030;4.606;2023-12-14T00:11:06;98.55;;;26.10;;
43580;SDS011;29175;51.030;4.606;2023-12-14T00:15:58;101.43;;;24.98;;
43580;SDS011;29175;51.030;4.606;2023-12-14T00:18:25;112.05;;;26.65;;
43580;SDS011;29175;51.030;4.606;2023-12-14T00:20:51;108.35;;;29.10;;
43580;SDS011;29175;51.030;4.606;2023-12-14T00:23:17;105.35;;;26.52;;
43580;SDS011;29175;51.030;4.606;2023-12-14T00:25:43;103.40;;;26.25;;
43580;SDS011;29175;51.030;4.606;2023-12-14T00:28:09;108.75;;;27.42;;
43580;SDS011;29175;51.030;4.606;2023-12-14T00:30:34;113.50;;;26.52;;
43580;SDS011;29175;51.030;4.606;2023-12-14T00:33:00;96.00;;;26.73;;
43580;SDS011;29175;51.030;4.606;2023-12-14T00:35:26;104.65;;;27.52;;
43580;SDS011;29175;51.030;4.606;2023-12-14T00:37:52;102.10;;;26.48;;
43580;SDS011;29175;51.030;4.606;2023-12-14T00:40:18;95.95;;;25.55;;
43580;SDS011;29175;51.030;4.606;2023-12-14T00:42:43;105.90;;;26.70;;
43580;SDS011;29175;51.030;4.606;2023-12-14T00:45:09;96.53;;;23.92;;
43580;SDS011;29175;51.030;4.606;2023-12-14T00:47:35;98.93;;;24.77;;
43580;SDS011;29175;51.030;4.606;2023-12-14T00:50:01;97.65;;;26.20;;
43580;SDS011;29175;51.030;4.606;2023-12-14T00:52:27;93.80;;;25.52;;
43580;SDS011;29175;51.030;4.606;2023-12-14T00:54:53;104.72;;;26.90;;
43580;SDS011;29175;51.030;4.606;2023-12-14T00:57:18;96.00;;;26.30;;
43580;SDS011;29175;51.030;4.606;2023-12-14T00:59:44;107.68;;;28.13;;
43580;SDS011;29175;51.030;4.606;2023-12-14T01:02:10;101.88;;;27.83;;
43580;SDS011;29175;51.030;4.606;2023-12-14T01:04:36;105.43;;;27.23;;
43580;SDS011;29175;51.030;4.606;2023-12-14T01:07:02;109.78;;;26.85;;
43580;SDS011;29175;51.030;4.606;2023-12-14T01:09:29;99.72;;;27.20;;
43580;SDS011;29175;51.030;4.606;2023-12-14T01:11:54;100.32;;;27.35;;
43580;SDS011;29175;51.030;4.606;2023-12-14T01:14:20;81.75;;;24.85;;
43580;SDS011;29175;51.030;4.606;2023-12-14T01:16:46;93.97;;;24.48;;
43580;SDS011;29175;51.030;4.606;2023-12-14T01:19:12;89.05;;;24.65;;
43580;SDS011;29175;51.030;4.606;2023-12-14T01:21:37;88.07;;;25.05;;
43580;SDS011;29175;51.030;4.606;2023-12-14T01:24:03;92.50;;;22.50;;
43580;SDS011;29175;51.030;4.606;2023-12-14T01:26:29;75.30;;;20.25;;
43580;SDS011;29175;51.030;4.606;2023-12-14T01:28:55;78.13;;;21.67;;
43580;SDS011;29175;51.030;4.606;2023-12-14T01:31:21;87.97;;;21.02;;
43580;SDS011;29175;51.030;4.606;2023-12-14T01:33:49;72.95;;;19.55;;
43580;SDS011;29175;51.030;4.606;2023-12-14T01:36:21;82.00;;;21.92;;
43580;SDS011;29175;51.030;4.606;2023-12-14T01:38:48;80.68;;;20.67;;
43580;SDS011;29175;51.030;4.606;2023-12-14T01:41:14;78.85;;;22.27;;
43580;SDS011;29175;51.030;4.606;2023-12-14T01:43:40;69.80;;;20.45;;
43580;SDS011;29175;51.030;4.606;2023-12-14T01:46:06;82.97;;;21.05;;
43580;SDS011;29175;51.030;4.606;2023-12-14T01:48:32;74.70;;;19.92;;
43580;SDS011;29175;51.030;4.606;2023-12-14T01:50:57;72.85;;;19.13;;
43580;SDS011;29175;51.030;4.606;2023-12-14T01:53:23;77.10;;;20.75;;
43580;SDS011;29175;51.030;4.606;2023-12-14T01:55:49;77.28;;;20.58;;
43580;SDS011;29175;51.030;4.606;2023-12-14T01:58:14;76.85;;;20.63;;
43580;SDS011;29175;51.030;4.606;2023-12-14T02:00:58;77.05;;;20.25;;
43580;SDS011;29175;51.030;4.606;2023-12-14T02:03:35;66.55;;;18.48;;
43580;SDS011;29175;51.030;4.606;2023-12-14T02:06:01;63.35;;;19.45;;
43580;SDS011;29175;51.030;4.606;2023-12-14T02:08:27;55.88;;;16.77;;
43580;SDS011;29175;51.030;4.606;2023-12-14T02:10:54;63.13;;;16.77;;
43580;SDS011;29175;51.030;4.606;2023-12-14T02:13:19;60.80;;;16.52;;
43580;SDS011;29175;51.030;4.606;2023-12-14T02:15:45;61.97;;;16.27;;
43580;SDS011;29175;51.030;4.606;2023-12-14T02:18:12;69.88;;;17.05;;
43580;SDS011;29175;51.030;4.606;2023-12-14T02:20:37;67.45;;;18.50;;
43580;SDS011;29175;51.030;4.606;2023-12-14T02:23:03;57.35;;;17.05;;
43580;SDS011;29175;51.030;4.606;2023-12-14T02:25:29;63.20;;;17.63;;
43580;SDS011;29175;51.030;4.606;2023-12-14T02:27:54;47.45;;;16.00;;
43580;SDS011;29175;51.030;4.606;2023-12-14T02:30:20;53.92;;;14.65;;
43580;SDS011;29175;51.030;4.606;2023-12-14T02:32:46;50.58;;;15.43;;
43580;SDS011;29175;51.030;4.606;2023-12-14T02:35:12;43.67;;;13.65;;
43580;SDS011;29175;51.030;4.606;2023-12-14T02:37:38;62.60;;;16.45;;
43580;SDS011;29175;51.030;4.606;2023-12-14T02:40:06;59.03;;;16.27;;
43580;SDS011;29175;51.030;4.606;2023-12-14T02:42:32;48.45;;;14.65;;
43580;SDS011;29175;51.030;4.606;2023-12-14T02:44:58;58.78;;;17.27;;
43580;SDS011;29175;51.030;4.606;2023-12-14T02:47:24;62.72;;;16.73;;
43580;SDS011;29175;51.030;4.606;2023-12-14T02:49:50;51.58;;;16.05;;
43580;SDS011;29175;51.030;4.606;2023-12-14T02:52:15;52.60;;;16.63;;
43580;SDS011;29175;51.030;4.606;2023-12-14T02:54:41;56.42;;;16.60;;
43580;SDS011;29175;51.030;4.606;2023-12-14T02:57:07;55.50;;;15.52;;
43580;SDS011;29175;51.030;4.606;2023-12-14T02:59:32;51.90;;;15.57;;
43580;SDS011;29175;51.030;4.606;2023-12-14T03:01:58;53.47;;;15.77;;
43580;SDS011;29175;51.030;4.606;2023-12-14T03:04:25;53.70;;;16.30;;
43580;SDS011;29175;51.030;4.606;2023-12-14T03:06:50;54.05;;;17.15;;
43580;SDS011;29175;51.030;4.606;2023-12-14T03:09:16;47.35;;;14.98;;
43580;SDS011;29175;51.030;4.606;2023-12-14T03:11:44;46.50;;;14.38;;
43580;SDS011;29175;51.030;4.606;2023-12-14T03:14:10;50.42;;;15.10;;
43580;SDS011;29175;51.030;4.606;2023-12-14T03:16:36;41.22;;;13.57;;
43580;SDS011;29175;51.030;4.606;2023-12-14T03:19:02;42.25;;;13.73;;
43580;SDS011;29175;51.030;4.606;2023-12-14T03:21:28;41.30;;;13.93;;
43580;SDS011;29175;51.030;4.606;2023-12-14T03:23:54;42.53;;;13.65;;
43580;SDS011;29175;51.030;4.606;2023-12-14T03:26:20;45.58;;;12.68;;
43580;SDS011;29175;51.030;4.606;2023-12-14T03:28:45;34.53;;;11.20;;
43580;SDS011;29175;51.030;4.606;2023-12-14T03:31:11;36.42;;;11.35;;
43580;SDS011;29175;51.030;4.606;2023-12-14T03:33:38;34.50;;;11.52;;
43580;SDS011;29175;51.030;4.606;2023-12-14T03:36:04;43.33;;;12.38;;
43580;SDS011;29175;51.030;4.606;2023-12-14T03:38:31;40.67;;;13.23;;
43580;SDS011;29175;51.030;4.606;2023-12-14T03:40:57;36.85;;;12.05;;
43580;SDS011;29175;51.030;4.606;2023-12-14T03:43:22;39.88;;;12.93;;
43580;SDS011;29175;51.030;4.606;2023-12-14T03:45:48;35.65;;;12.57;;
43580;SDS011;29175;51.030;4.606;2023-12-14T03:48:14;30.35;;;12.10;;
43580;SDS011;29175;51.030;4.606;2023-12-14T03:50:39;38.58;;;12.63;;
43580;SDS011;29175;51.030;4.606;2023-12-14T03:53:05;40.17;;;12.55;;
43580;SDS011;29175;51.030;4.606;2023-12-14T03:55:32;37.33;;;13.20;;
43580;SDS011;29175;51.030;4.606;2023-12-14T03:57:58;39.65;;;13.73;;
43580;SDS011;29175;51.030;4.606;2023-12-14T04:00:23;43.97;;;14.73;;
43580;SDS011;29175;51.030;4.606;2023-12-14T04:02:49;42.22;;;13.98;;
43580;SDS011;29175;51.030;4.606;2023-12-14T04:05:15;36.72;;;13.10;;
43580;SDS011;29175;51.030;4.606;2023-12-14T04:07:41;38.83;;;14.10;;
43580;SDS011;29175;51.030;4.606;2023-12-14T04:12:36;35.60;;;13.13;;
43580;SDS011;29175;51.030;4.606;2023-12-14T04:15:03;33.90;;;12.73;;
43580;SDS011;29175;51.030;4.606;2023-12-14T04:17:30;33.13;;;11.80;;
43580;SDS011;29175;51.030;4.606;2023-12-14T04:19:56;30.42;;;11.43;;
43580;SDS011;29175;51.030;4.606;2023-12-14T04:22:22;36.38;;;13.68;;
43580;SDS011;29175;51.030;4.606;2023-12-14T04:24:48;34.13;;;12.27;;
43580;SDS011;29175;51.030;4.606;2023-12-14T04:27:14;38.00;;;13.48;;
43580;SDS011;29175;51.030;4.606;2023-12-14T04:29:40;32.13;;;12.32;;
43580;SDS011;29175;51.030;4.606;2023-12-14T04:32:06;35.08;;;12.25;;
43580;SDS011;29175;51.030;4.606;2023-12-14T04:34:32;36.08;;;13.57;;
43580;SDS011;29175;51.030;4.606;2023-12-14T04:36:58;34.75;;;13.55;;
43580;SDS011;29175;51.030;4.606;2023-12-14T04:39:24;37.50;;;13.65;;
43580;SDS011;29175;51.030;4.606;2023-12-14T04:41:50;39.28;;;13.15;;
43580;SDS011;29175;51.030;4.606;2023-12-14T04:44:17;42.58;;;14.68;;
43580;SDS011;29175;51.030;4.606;2023-12-14T04:46:43;42.33;;;14.95;;
43580;SDS011;29175;51.030;4.606;2023-12-14T04:49:09;38.53;;;13.82;;
43580;SDS011;29175;51.030;4.606;2023-12-14T04:51:34;37.15;;;13.80;;
43580;SDS011;29175;51.030;4.606;2023-12-14T04:54:00;37.17;;;14.27;;
43580;SDS011;29175;51.030;4.606;2023-12-14T04:56:26;36.28;;;14.45;;
43580;SDS011;29175;51.030;4.606;2023-12-14T04:58:51;40.05;;;14.55;;
43580;SDS011;29175;51.030;4.606;2023-12-14T05:01:17;39.97;;;14.65;;
43580;SDS011;29175;51.030;4.606;2023-12-14T05:03:43;38.47;;;15.35;;
43580;SDS011;29175;51.030;4.606;2023-12-14T05:06:09;39.22;;;14.85;;
43580;SDS011;29175;51.030;4.606;2023-12-14T05:08:34;40.95;;;15.10;;
43580;SDS011;29175;51.030;4.606;2023-12-14T05:11:00;40.60;;;14.00;;
43580;SDS011;29175;51.030;4.606;2023-12-14T05:13:26;35.22;;;14.18;;
43580;SDS011;29175;51.030;4.606;2023-12-14T05:15:52;41.63;;;14.68;;
43580;SDS011;29175;51.030;4.606;2023-12-14T05:18:18;37.67;;;14.48;;
43580;SDS011;29175;51.030;4.606;2023-12-14T05:20:43;40.70;;;14.77;;
43580;SDS011;29175;51.030;4.606;2023-12-14T05:23:10;34.83;;;14.43;;
43580;SDS011;29175;51.030;4.606;2023-12-14T05:25:39;45.90;;;13.82;;
43580;SDS011;29175;51.030;4.606;2023-12-14T05:28:05;40.15;;;14.60;;
43580;SDS011;29175;51.030;4.606;2023-12-14T05:30:30;42.35;;;15.02;;
43580;SDS011;29175;51.030;4.606;2023-12-14T05:32:56;38.08;;;13.82;;
43580;SDS011;29175;51.030;4.606;2023-12-14T05:35:22;33.35;;;13.68;;
43580;SDS011;29175;51.030;4.606;2023-12-14T05:37:47;38.97;;;14.13;;
43580;SDS011;29175;51.030;4.606;2023-12-14T05:40:14;34.05;;;12.68;;
43580;SDS011;29175;51.030;4.606;2023-12-14T05:42:40;33.72;;;12.32;;
43580;SDS011;29175;51.030;4.606;2023-12-14T05:45:06;37.75;;;13.52;;
43580;SDS011;29175;51.030;4.606;2023-12-14T05:47:32;40.22;;;14.05;;
43580;SDS011;29175;51.030;4.606;2023-12-14T05:50:00;38.90;;;13.55;;
43580;SDS011;29175;51.030;4.606;2023-12-14T05:52:26;38.30;;;13.75;;
43580;SDS011;29175;51.030;4.606;2023-12-14T05:54:53;38.33;;;14.93;;
43580;SDS011;29175;51.030;4.606;2023-12-14T05:57:18;37.70;;;13.30;;
43580;SDS011;29175;51.030;4.606;2023-12-14T05:59:44;34.83;;;13.43;;
43580;SDS011;29175;51.030;4.606;2023-12-14T06:02:10;40.03;;;14.18;;
43580;SDS011;29175;51.030;4.606;2023-12-14T06:04:35;34.80;;;13.57;;
43580;SDS011;29175;51.030;4.606;2023-12-14T06:07:01;36.17;;;14.07;;
43580;SDS011;29175;51.030;4.606;2023-12-14T06:09:27;37.42;;;13.45;;
43580;SDS011;29175;51.030;4.606;2023-12-14T06:12:01;33.95;;;13.10;;
43580;SDS011;29175;51.030;4.606;2023-12-14T06:14:28;39.53;;;13.13;;
43580;SDS011;29175;51.030;4.606;2023-12-14T06:16:54;40.92;;;13.98;;
43580;SDS011;29175;51.030;4.606;2023-12-14T06:19:19;34.78;;;13.32;;
43580;SDS011;29175;51.030;4.606;2023-12-14T06:21:45;33.88;;;12.55;;
43580;SDS011;29175;51.030;4.606;2023-12-14T06:24:12;35.30;;;13.50;;
43580;SDS011;29175;51.030;4.606;2023-12-14T06:26:41;38.83;;;13.82;;
43580;SDS011;29175;51.030;4.606;2023-12-14T06:29:08;36.67;;;14.18;;
43580;SDS011;29175;51.030;4.606;2023-12-14T06:31:34;40.92;;;14.15;;
43580;SDS011;29175;51.030;4.606;2023-12-14T06:34:00;38.85;;;14.98;;
43580;SDS011;29175;51.030;4.606;2023-12-14T06:36:28;45.17;;;15.27;;
43580;SDS011;29175;51.030;4.606;2023-12-14T06:38:58;49.92;;;15.68;;
43580;SDS011;29175;51.030;4.606;2023-12-14T06:41:25;46.38;;;16.38;;
43580;SDS011;29175;51.030;4.606;2023-12-14T06:43:53;42.08;;;15.27;;
43580;SDS011;29175;51.030;4.606;2023-12-14T06:46:19;47.33;;;16.15;;
43580;SDS011;29175;51.030;4.606;2023-12-14T06:48:45;44.10;;;15.35;;
43580;SDS011;29175;51.030;4.606;2023-12-14T06:51:11;50.42;;;16.15;;
43580;SDS011;29175;51.030;4.606;2023-12-14T06:53:39;47.33;;;16.10;;
43580;SDS011;29175;51.030;4.606;2023-12-14T06:56:06;45.42;;;15.52;;
43580;SDS011;29175;51.030;4.606;2023-12-14T06:58:42;43.10;;;15.95;;
43580;SDS011;29175;51.030;4.606;2023-12-14T07:01:13;41.72;;;15.13;;
43580;SDS011;29175;51.030;4.606;2023-12-14T07:03:40;42.85;;;15.20;;
43580;SDS011;29175;51.030;4.606;2023-12-14T07:06:15;43.63;;;14.38;;
43580;SDS011;29175;51.030;4.606;2023-12-14T07:08:42;39.83;;;13.73;;
43580;SDS011;29175;51.030;4.606;2023-12-14T07:11:08;39.55;;;14.00;;
43580;SDS011;29175;51.030;4.606;2023-12-14T07:13:34;44.25;;;14.93;;
43580;SDS011;29175;51.030;4.606;2023-12-14T07:16:06;46.25;;;14.07;;
43580;SDS011;29175;51.030;4.606;2023-12-14T07:18:34;38.65;;;13.57;;
43580;SDS011;29175;51.030;4.606;2023-12-14T07:21:00;37.67;;;13.50;;
43580;SDS011;29175;51.030;4.606;2023-12-14T07:23:27;36.47;;;13.30;;
43580;SDS011;29175;51.030;4.606;2023-12-14T07:25:53;36.55;;;13.95;;
43580;SDS011;29175;51.030;4.606;2023-12-14T07:28:18;40.95;;;13.20;;
43580;SDS011;29175;51.030;4.606;2023-12-14T07:30:45;42.65;;;13.18;;
43580;SDS011;29175;51.030;4.606;2023-12-14T07:33:11;39.80;;;13.25;;
43580;SDS011;29175;51.030;4.606;2023-12-14T07:35:37;37.25;;;13.05;;
43580;SDS011;29175;51.030;4.606;2023-12-14T07:38:03;46.47;;;13.98;;
43580;SDS011;29175;51.030;4.606;2023-12-14T07:40:29;33.47;;;12.73;;
43580;SDS011;29175;51.030;4.606;2023-12-14T07:42:54;39.38;;;14.27;;
43580;SDS011;29175;51.030;4.606;2023-12-14T07:45:20;39.70;;;13.80;;
43580;SDS011;29175;51.030;4.606;2023-12-14T07:47:46;38.75;;;13.85;;
43580;SDS011;29175;51.030;4.606;2023-12-14T07:50:11;40.35;;;14.10;;
43580;SDS011;29175;51.030;4.606;2023-12-14T07:52:37;32.17;;;12.32;;
43580;SDS011;29175;51.030;4.606;2023-12-14T07:55:04;38.58;;;13.32;;
43580;SDS011;29175;51.030;4.606;2023-12-14T07:57:30;33.35;;;12.43;;
43580;SDS011;29175;51.030;4.606;2023-12-14T07:59:56;33.53;;;11.27;;
43580;SDS011;29175;51.030;4.606;2023-12-14T08:02:22;28.23;;;10.48;;
43580;SDS011;29175;51.030;4.606;2023-12-14T08:06:16;36.10;;;12.05;;
43580;SDS011;29175;51.030;4.606;2023-12-14T08:08:42;34.95;;;10.63;;
43580;SDS011;29175;51.030;4.606;2023-12-14T08:11:08;38.17;;;11.82;;
43580;SDS011;29175;51.030;4.606;2023-12-14T08:13:34;31.77;;;12.20;;
43580;SDS011;29175;51.030;4.606;2023-12-14T08:16:00;37.28;;;12.40;;
43580;SDS011;29175;51.030;4.606;2023-12-14T08:18:25;42.22;;;13.50;;
43580;SDS011;29175;51.030;4.606;2023-12-14T08:20:52;38.05;;;13.60;;
43580;SDS011;29175;51.030;4.606;2023-12-14T08:23:20;38.95;;;13.10;;
43580;SDS011;29175;51.030;4.606;2023-12-14T08:25:46;29.10;;;11.80;;
43580;SDS011;29175;51.030;4.606;2023-12-14T08:28:11;37.25;;;12.43;;
43580;SDS011;29175;51.030;4.606;2023-12-14T08:30:37;32.72;;;12.88;;
43580;SDS011;29175;51.030;4.606;2023-12-14T08:33:04;35.33;;;11.70;;
43580;SDS011;29175;51.030;4.606;2023-12-14T08:35:29;33.10;;;11.85;;
43580;SDS011;29175;51.030;4.606;2023-12-14T08:37:55;32.05;;;12.23;;
43580;SDS011;29175;51.030;4.606;2023-12-14T08:40:21;35.75;;;13.02;;
43580;SDS011;29175;51.030;4.606;2023-12-14T08:42:47;31.05;;;11.43;;
43580;SDS011;29175;51.030;4.606;2023-12-14T08:45:13;43.25;;;12.85;;
43580;SDS011;29175;51.030;4.606;2023-12-14T08:47:39;28.50;;;12.07;;
43580;SDS011;29175;51.030;4.606;2023-12-14T08:50:05;39.58;;;11.82;;
43580;SDS011;29175;51.030;4.606;2023-12-14T08:52:31;35.45;;;11.05;;
43580;SDS011;29175;51.030;4.606;2023-12-14T08:54:57;39.50;;;12.10;;
43580;SDS011;29175;51.030;4.606;2023-12-14T08:57:23;33.55;;;11.88;;
43580;SDS011;29175;51.030;4.606;2023-12-14T08:59:49;33.38;;;12.27;;
43580;SDS011;29175;51.030;4.606;2023-12-14T09:02:14;37.15;;;11.90;;
43580;SDS011;29175;51.030;4.606;2023-12-14T09:04:40;36.03;;;12.43;;
43580;SDS011;29175;51.030;4.606;2023-12-14T09:07:06;44.60;;;12.77;;
43580;SDS011;29175;51.030;4.606;2023-12-14T09:09:32;30.83;;;11.52;;
43580;SDS011;29175;51.030;4.606;2023-12-14T09:11:57;33.88;;;12.23;;
43580;SDS011;29175;51.030;4.606;2023-12-14T09:14:23;35.88;;;12.23;;
43580;SDS011;29175;51.030;4.606;2023-12-14T09:16:49;30.48;;;11.80;;
43580;SDS011;29175;51.030;4.606;2023-12-14T09:19:15;30.45;;;11.80;;
43580;SDS011;29175;51.030;4.606;2023-12-14T09:21:40;35.47;;;12.35;;
43580;SDS011;29175;51.030;4.606;2023-12-14T09:24:06;34.17;;;12.07;;
43580;SDS011;29175;51.030;4.606;2023-12-14T09:26:32;28.05;;;11.48;;
43580;SDS011;29175;51.030;4.606;2023-12-14T09:28:57;37.20;;;10.73;;
43580;SDS011;29175;51.030;4.606;2023-12-14T09:31:23;29.08;;;9.35;;
43580;SDS011;29175;51.030;4.606;2023-12-14T09:33:49;23.35;;;9.52;;
43580;SDS011;29175;51.030;4.606;2023-12-14T09:36:14;28.80;;;9.48;;
43580;SDS011;29175;51.030;4.606;2023-12-14T09:38:40;21.35;;;7.72;;
43580;SDS011;29175;51.030;4.606;2023-12-14T09:41:06;19.70;;;7.82;;
43580;SDS011;29175;51.030;4.606;2023-12-14T09:43:32;19.42;;;7.53;;
43580;SDS011;29175;51.030;4.606;2023-12-14T09:45:58;23.02;;;6.90;;
43580;SDS011;29175;51.030;4.606;2023-12-14T09:48:25;20.52;;;8.35;;
43580;SDS011;29175;51.030;4.606;2023-12-14T09:50:53;24.02;;;8.23;;
43580;SDS011;29175;51.030;4.606;2023-12-14T09:53:19;18.65;;;6.38;;
43580;SDS011;29175;51.030;4.606;2023-12-14T09:55:44;13.95;;;5.80;;
43580;SDS011;29175;51.030;4.606;2023-12-14T09:58:10;13.18;;;5.38;;
43580;SDS011;29175;51.030;4.606;2023-12-14T10:00:41;18.85;;;5.78;;
43580;SDS011;29175;51.030;4.606;2023-12-14T10:03:21;20.13;;;6.10;;
43580;SDS011;29175;51.030;4.606;2023-12-14T10:05:48;22.63;;;6.63;;
43580;SDS011;29175;51.030;4.606;2023-12-14T10:08:15;17.70;;;6.82;;
43580;SDS011;29175;51.030;4.606;2023-12-14T10:10:42;17.80;;;6.05;;
43580;SDS011;29175;51.030;4.606;2023-12-14T10:13:08;14.45;;;6.35;;
43580;SDS011;29175;51.030;4.606;2023-12-14T10:15:44;15.52;;;5.78;;
43580;SDS011;29175;51.030;4.606;2023-12-14T10:18:12;18.60;;;6.95;;
43580;SDS011;29175;51.030;4.606;2023-12-14T10:20:51;18.80;;;6.78;;
43580;SDS011;29175;51.030;4.606;2023-12-14T10:23:18;18.95;;;7.57;;
43580;SDS011;29175;51.030;4.606;2023-12-14T10:25:44;20.58;;;7.30;;
43580;SDS011;29175;51.030;4.606;2023-12-14T10:28:14;21.73;;;7.57;;
43580;SDS011;29175;51.030;4.606;2023-12-14T10:30:40;23.48;;;7.65;;
43580;SDS011;29175;51.030;4.606;2023-12-14T10:33:06;19.13;;;8.32;;
43580;SDS011;29175;51.030;4.606;2023-12-14T10:35:32;20.02;;;7.72;;
43580;SDS011;29175;51.030;4.606;2023-12-14T10:37:58;19.45;;;8.55;;
43580;SDS011;29175;51.030;4.606;2023-12-14T10:40:33;25.67;;;8.02;;
43580;SDS011;29175;51.030;4.606;2023-12-14T10:43:02;23.50;;;8.18;;
43580;SDS011;29175;51.030;4.606;2023-12-14T10:45:30;16.65;;;7.80;;
43580;SDS011;29175;51.030;4.606;2023-12-14T10:47:58;19.58;;;7.68;;
43580;SDS011;29175;51.030;4.606;2023-12-14T10:50:29;25.27;;;8.10;;
43580;SDS011;29175;51.030;4.606;2023-12-14T10:52:58;22.30;;;7.53;;
43580;SDS011;29175;51.030;4.606;2023-12-14T10:58:08;22.55;;;8.95;;
43580;SDS011;29175;51.030;4.606;2023-12-14T11:00:35;26.83;;;8.85;;
43580;SDS011;29175;51.030;4.606;2023-12-14T11:03:03;27.38;;;8.85;;
43580;SDS011;29175;51.030;4.606;2023-12-14T11:05:30;24.67;;;9.40;;
43580;SDS011;29175;51.030;4.606;2023-12-14T11:08:02;25.87;;;9.70;;
43580;SDS011;29175;51.030;4.606;2023-12-14T11:10:38;24.70;;;10.00;;
43580;SDS011;29175;51.030;4.606;2023-12-14T11:13:11;28.52;;;10.77;;
43580;SDS011;29175;51.030;4.606;2023-12-14T11:15:47;30.83;;;10.35;;
43580;SDS011;29175;51.030;4.606;2023-12-14T11:20:50;24.17;;;9.20;;
43580;SDS011;29175;51.030;4.606;2023-12-14T11:25:54;19.73;;;7.72;;
43580;SDS011;29175;51.030;4.606;2023-12-14T11:28:23;17.58;;;7.40;;
43580;SDS011;29175;51.030;4.606;2023-12-14T11:30:49;21.83;;;8.60;;
43580;SDS011;29175;51.030;4.606;2023-12-14T11:33:16;22.15;;;7.60;;
43580;SDS011;29175;51.030;4.606;2023-12-14T11:35:42;23.88;;;8.48;;
43580;SDS011;29175;51.030;4.606;2023-12-14T11:38:07;24.90;;;7.90;;
43580;SDS011;29175;51.030;4.606;2023-12-14T11:40:44;16.55;;;7.05;;
43580;SDS011;29175;51.030;4.606;2023-12-14T11:43:10;21.73;;;7.47;;
43580;SDS011;29175;51.030;4.606;2023-12-14T11:45:39;19.75;;;7.35;;
43580;SDS011;29175;51.030;4.606;2023-12-14T11:48:09;18.73;;;7.95;;
43580;SDS011;29175;51.030;4.606;2023-12-14T11:50:37;17.80;;;7.55;;
43580;SDS011;29175;51.030;4.606;2023-12-14T11:53:03;17.98;;;7.82;;
43580;SDS011;29175;51.030;4.606;2023-12-14T11:55:30;19.60;;;7.20;;
43580;SDS011;29175;51.030;4.606;2023-12-14T11:57:57;18.50;;;7.15;;
43580;SDS011;29175;51.030;4.606;2023-12-14T12:00:24;20.80;;;6.97;;
43580;SDS011;29175;51.030;4.606;2023-12-14T12:02:52;21.13;;;7.45;;
43580;SDS011;29175;51.030;4.606;2023-12-14T12:05:44;16.38;;;6.18;;
43580;SDS011;29175;51.030;4.606;2023-12-14T12:08:11;19.65;;;6.47;;
43580;SDS011;29175;51.030;4.606;2023-12-14T12:10:39;20.75;;;7.55;;
43580;SDS011;29175;51.030;4.606;2023-12-14T12:13:07;21.42;;;6.38;;
43580;SDS011;29175;51.030;4.606;2023-12-14T12:15:36;19.10;;;6.72;;
43580;SDS011;29175;51.030;4.606;2023-12-14T12:18:03;18.67;;;6.20;;
43580;SDS011;29175;51.030;4.606;2023-12-14T12:20:30;22.85;;;7.00;;
43580;SDS011;29175;51.030;4.606;2023-12-14T12:22:57;14.07;;;6.70;;
43580;SDS011;29175;51.030;4.606;2023-12-14T12:25:23;15.13;;;5.72;;
43580;SDS011;29175;51.030;4.606;2023-12-14T12:27:49;12.80;;;5.30;;
43580;SDS011;29175;51.030;4.606;2023-12-14T12:30:15;23.67;;;5.78;;
43580;SDS011;29175;51.030;4.606;2023-12-14T12:32:41;19.30;;;5.93;;
43580;SDS011;29175;51.030;4.606;2023-12-14T12:35:07;18.08;;;6.90;;
43580;SDS011;29175;51.030;4.606;2023-12-14T12:37:33;17.00;;;6.25;;
43580;SDS011;29175;51.030;4.606;2023-12-14T12:39:59;15.00;;;5.63;;
43580;SDS011;29175;51.030;4.606;2023-12-14T12:42:25;13.38;;;5.88;;
43580;SDS011;29175;51.030;4.606;2023-12-14T12:44:51;13.50;;;5.88;;
43580;SDS011;29175;51.030;4.606;2023-12-14T12:47:17;18.10;;;6.15;;
43580;SDS011;29175;51.030;4.606;2023-12-14T12:49:44;15.32;;;5.45;;
43580;SDS011;29175;51.030;4.606;2023-12-14T12:52:09;17.20;;;5.75;;
43580;SDS011;29175;51.030;4.606;2023-12-14T12:54:35;17.98;;;6.03;;
43580;SDS011;29175;51.030;4.606;2023-12-14T12:57:01;16.50;;;6.13;;
43580;SDS011;29175;51.030;4.606;2023-12-14T12:59:26;18.58;;;5.68;;
43580;SDS011;29175;51.030;4.606;2023-12-14T13:01:53;18.42;;;6.13;;
43580;SDS011;29175;51.030;4.606;2023-12-14T13:04:22;22.80;;;5.90;;
43580;SDS011;29175;51.030;4.606;2023-12-14T13:06:48;18.80;;;5.93;;
43580;SDS011;29175;51.030;4.606;2023-12-14T13:09:15;17.85;;;6.32;;
43580;SDS011;29175;51.030;4.606;2023-12-14T13:11:44;13.82;;;5.40;;
43580;SDS011;29175;51.030;4.606;2023-12-14T13:14:11;15.60;;;5.68;;
43580;SDS011;29175;51.030;4.606;2023-12-14T13:16:37;14.27;;;6.07;;
43580;SDS011;29175;51.030;4.606;2023-12-14T13:19:03;21.02;;;6.63;;
43580;SDS011;29175;51.030;4.606;2023-12-14T13:21:31;18.08;;;7.10;;
43580;SDS011;29175;51.030;4.606;2023-12-14T13:24:00;18.53;;;6.47;;
43580;SDS011;29175;51.030;4.606;2023-12-14T13:26:26;20.85;;;6.97;;
43580;SDS011;29175;51.030;4.606;2023-12-14T13:28:52;22.42;;;7.22;;
43580;SDS011;29175;51.030;4.606;2023-12-14T13:31:18;16.63;;;6.25;;
43580;SDS011;29175;51.030;4.606;2023-12-14T13:33:48;21.23;;;8.20;;
43580;SDS011;29175;51.030;4.606;2023-12-14T13:36:15;21.42;;;7.13;;
43580;SDS011;29175;51.030;4.606;2023-12-14T13:38:41;21.65;;;7.10;;
43580;SDS011;29175;51.030;4.606;2023-12-14T13:41:08;20.85;;;8.30;;
43580;SDS011;29175;51.030;4.606;2023-12-14T13:43:34;18.88;;;8.05;;
43580;SDS011;29175;51.030;4.606;2023-12-14T13:46:00;21.67;;;7.72;;
43580;SDS011;29175;51.030;4.606;2023-12-14T13:48:26;19.98;;;7.45;;
43580;SDS011;29175;51.030;4.606;2023-12-14T13:50:52;25.50;;;9.23;;
43580;SDS011;29175;51.030;4.606;2023-12-14T13:53:18;26.85;;;8.35;;
43580;SDS011;29175;51.030;4.606;2023-12-14T13:55:45;27.90;;;7.60;;
43580;SDS011;29175;51.030;4.606;2023-12-14T13:58:11;26.42;;;8.80;;
43580;SDS011;29175;51.030;4.606;2023-12-14T14:00:37;23.23;;;8.52;;
43580;SDS011;29175;51.030;4.606;2023-12-14T14:03:05;21.00;;;8.55;;
43580;SDS011;29175;51.030;4.606;2023-12-14T14:05:31;17.48;;;7.78;;
43580;SDS011;29175;51.030;4.606;2023-12-14T14:07:57;22.52;;;8.35;;
43580;SDS011;29175;51.030;4.606;2023-12-14T14:10:23;21.48;;;8.13;;
43580;SDS011;29175;51.030;4.606;2023-12-14T14:12:49;22.67;;;8.75;;
43580;SDS011;29175;51.030;4.606;2023-12-14T14:15:15;26.15;;;8.50;;
43580;SDS011;29175;51.030;4.606;2023-12-14T14:17:41;21.75;;;8.52;;
43580;SDS011;29175;51.030;4.606;2023-12-14T14:20:07;22.25;;;8.02;;
43580;SDS011;29175;51.030;4.606;2023-12-14T14:22:35;21.17;;;8.30;;
43580;SDS011;29175;51.030;4.606;2023-12-14T14:25:04;22.50;;;8.93;;
43580;SDS011;29175;51.030;4.606;2023-12-14T14:27:32;22.15;;;8.25;;
43580;SDS011;29175;51.030;4.606;2023-12-14T14:29:58;24.95;;;8.95;;
43580;SDS011;29175;51.030;4.606;2023-12-14T14:32:25;19.50;;;7.97;;
43580;SDS011;29175;51.030;4.606;2023-12-14T14:34:51;19.35;;;8.48;;
43580;SDS011;29175;51.030;4.606;2023-12-14T14:37:18;31.52;;;9.18;;